Time;durP1;ratioP1;P1;durP2;ratioP2;P2;SDS_P1;SDS_P2;PMS_P1;PMS_P2;Temp;Humidity;BMP_temperature;BMP_pressure;BME280_temperature;BME280_humidity;BME280_pressure;Samples;Min_cycle;Max_cycle;Signal;HPM_P1;HPM_P2
2023/08/16 00:06:15;;;;;;;;;;;20.10;99.90;;;;;;6686898;88;20074;-74
2023/08/16 00:16:16;;;;;;;;;;;20.00;99.90;;;;;;6688886;88;20539;-74
2023/08/16 00:26:16;;;;;;;;;;;19.90;99.90;;;;;;6687920;88;20524;-73
2023/08/16 00:36:17;;;;;;;;;;;19.80;99.90;;;;;;6688254;88;20072;-73
2023/08/16 00:46:17;;;;;;;;;;;19.60;99.90;;;;;;6683619;88;20072;-72
2023/08/16 00:56:18;;;;;;;;;;;19.60;99.90;;;;;;6688600;88;20064;-73
2023/08/16 01:06:18;;;;;;;;;;;19.50;99.90;;;;;;6684809;88;20067;-73
2023/08/16 01:16:20;;;;;;;;;;;19.60;99.90;;;;;;6684739;88;20517;-73
2023/08/16 01:26:26;;;;;;;;;;;19.60;99.90;;;;;;6685475;88;20068;-73
2023/08/16 01:36:27;;;;;;;;;;;19.60;99.90;;;;;;6686079;88;20545;-73
2023/08/16 01:46:28;;;;;;;;;;;19.70;99.90;;;;;;6689108;88;20077;-74
2023/08/16 01:56:28;;;;;;;;;;;19.70;99.90;;;;;;6690040;88;20427;-74
2023/08/16 02:06:29;;;;;;;;;;;19.80;99.90;;;;;;6686249;88;20184;-74
2023/08/16 02:16:29;;;;;;;;;;;19.70;99.90;;;;;;6684126;88;20762;-74
2023/08/16 02:26:30;;;;;;;;;;;19.70;99.90;;;;;;6687166;88;20078;-74
2023/08/16 02:36:30;;;;;;;;;;;19.70;99.90;;;;;;6688052;88;20121;-74
2023/08/16 02:46:31;;;;;;;;;;;19.60;99.90;;;;;;6686645;88;20070;-74
2023/08/16 02:56:31;;;;;;;;;;;19.50;99.90;;;;;;6689262;88;20090;-74
2023/08/16 03:06:32;;;;;;;;;;;19.50;99.90;;;;;;6690209;88;20100;-74
2023/08/16 03:16:32;;;;;;;;;;;19.60;99.90;;;;;;6689658;88;20081;-74
2023/08/16 03:26:33;;;;;;;;;;;19.50;99.90;;;;;;6690096;88;20076;-74
2023/08/16 03:36:33;;;;;;;;;;;19.60;99.90;;;;;;6690021;88;20074;-74
2023/08/16 03:46:34;;;;;;;;;;;19.50;99.90;;;;;;6685289;88;20076;-74
2023/08/16 03:56:34;;;;;;;;;;;19.60;99.90;;;;;;6686430;88;20186;-74
2023/08/16 04:06:35;;;;;;;;;;;19.60;99.90;;;;;;6688313;88;20059;-74
2023/08/16 04:16:35;;;;;;;;;;;19.60;99.90;;;;;;6686131;88;20565;-74
2023/08/16 04:26:36;;;;;;;;;;;19.60;99.90;;;;;;6689823;88;20093;-74
2023/08/16 04:36:36;;;;;;;;;;;19.60;99.90;;;;;;6685659;88;20568;-74
2023/08/16 04:46:37;;;;;;;;;;;19.60;99.90;;;;;;6684303;88;20238;-74
2023/08/16 04:56:37;;;;;;;;;;;19.60;99.90;;;;;;6689250;88;20052;-73
2023/08/16 05:06:38;;;;;;;;;;;19.60;99.90;;;;;;6694182;77;20138;-78
2023/08/16 05:16:38;;;;;;;;;;;19.70;99.90;;;;;;6714062;88;20309;-78
2023/08/16 05:26:39;;;;;;;;;;;19.70;99.90;;;;;;6708449;88;20056;-78
2023/08/16 05:36:46;;;;;;;;;;;19.80;99.90;;;;;;6696693;88;20051;-78
2023/08/16 05:46:47;;;;;;;;;;;19.80;99.90;;;;;;6702295;88;20043;-78
2023/08/16 05:56:47;;;;;;;;;;;19.90;99.90;;;;;;6703870;88;20056;-76
2023/08/16 06:06:49;;;;;;;;;;;19.70;99.90;;;;;;6699909;88;20195;-78
2023/08/16 06:16:49;;;;;;;;;;;19.70;99.90;;;;;;6697164;88;20067;-76
2023/08/16 06:26:49;;;;;;;;;;;19.60;99.90;;;;;;6702043;88;20081;-78
2023/08/16 06:36:50;;;;;;;;;;;19.70;99.90;;;;;;6687745;88;20097;-74
2023/08/16 06:46:51;;;;;;;;;;;19.80;99.90;;;;;;6693535;88;20635;-76
2023/08/16 06:56:53;;;;;;;;;;;19.80;99.90;;;;;;6701490;88;20162;-76
2023/08/16 07:06:54;;;;;;;;;;;19.90;99.90;;;;;;6705973;88;20085;-77
2023/08/16 07:16:55;;;;;;;;;;;20.10;99.90;;;;;;6703409;88;20441;-77
2023/08/16 07:26:56;;;;;;;;;;;20.20;99.90;;;;;;6700266;88;20110;-76
2023/08/16 07:36:56;;;;;;;;;;;20.00;99.90;;;;;;6698657;88;20099;-77
2023/08/16 07:46:57;;;;;;;;;;;20.30;99.90;;;;;;6705722;88;20052;-77
2023/08/16 07:56:57;;;;;;;;;;;20.60;99.90;;;;;;6703822;88;20187;-76
2023/08/16 08:06:58;;;;;;;;;;;20.80;99.90;;;;;;6699226;88;20060;-76
2023/08/16 08:16:59;;;;;;;;;;;21.00;99.90;;;;;;6702155;88;20050;-77
2023/08/16 08:26:59;;;;;;;;;;;21.10;99.90;;;;;;6708255;88;20642;-77
2023/08/16 08:37:00;;;;;;;;;;;21.30;99.90;;;;;;6706599;88;20074;-77
2023/08/16 08:47:05;;;;;;;;;;;21.60;99.90;;;;;;6704878;88;20097;-77
2023/08/16 08:57:05;;;;;;;;;;;21.40;99.90;;;;;;6697498;88;20542;-76
2023/08/16 09:07:07;;;;;;;;;;;21.90;99.90;;;;;;6699394;88;20216;-76
2023/08/16 09:17:07;;;;;;;;;;;22.20;99.90;;;;;;6702066;88;20088;-76
2023/08/16 09:27:08;;;;;;;;;;;22.00;99.90;;;;;;6712870;88;20063;-76
2023/08/16 09:37:09;;;;;;;;;;;22.20;99.90;;;;;;6703030;88;20067;-76
2023/08/16 09:47:13;;;;;;;;;;;21.90;99.90;;;;;;6704523;88;20527;-76
2023/08/16 09:57:14;;;;;;;;;;;22.10;99.90;;;;;;6693741;88;20087;-76
2023/08/16 10:07:15;;;;;;;;;;;22.20;99.90;;;;;;6700002;88;20085;-76
2023/08/16 10:17:17;;;;;;;;;;;22.40;99.90;;;;;;6702904;88;20496;-76
2023/08/16 10:27:19;;;;;;;;;;;23.10;99.90;;;;;;6703106;88;20064;-76
2023/08/16 10:37:20;;;;;;;;;;;23.10;99.90;;;;;;6703671;88;20076;-76
2023/08/16 10:47:27;;;;;;;;;;;23.10;99.90;;;;;;6709126;88;20109;-77
2023/08/16 10:57:27;;;;;;;;;;;23.50;99.90;;;;;;6706809;88;20138;-76
2023/08/16 11:07:30;;;;;;;;;;;23.50;99.90;;;;;;6708566;88;20058;-77
2023/08/16 11:17:32;;;;;;;;;;;23.70;99.90;;;;;;6705097;88;20083;-77
2023/08/16 11:27:32;;;;;;;;;;;24.20;99.90;;;;;;6710198;88;20217;-77
2023/08/16 11:37:33;;;;;;;;;;;25.00;99.90;;;;;;6710668;88;20087;-76
2023/08/16 11:47:34;;;;;;;;;;;25.70;99.90;;;;;;6707801;88;20070;-76
2023/08/16 11:57:44;;;;;;;;;;;27.60;99.90;;;;;;6701798;88;20163;-77
2023/08/16 12:07:47;;;;;;;;;;;28.70;99.90;;;;;;6711100;88;20075;-76
2023/08/16 12:17:48;;;;;;;;;;;29.00;99.90;;;;;;6709203;88;20538;-77
2023/08/16 12:27:49;;;;;;;;;;;30.20;99.90;;;;;;6711636;88;20081;-76
2023/08/16 12:37:49;;;;;;;;;;;30.10;99.90;;;;;;6708762;88;20090;-78
2023/08/16 12:47:50;;;;;;;;;;;32.20;99.90;;;;;;6707624;88;20070;-76
2023/08/16 12:57:50;;;;;;;;;;;32.90;99.90;;;;;;6713286;88;20131;-78
2023/08/16 13:07:51;;;;;;;;;;;32.50;99.90;;;;;;6710517;88;20085;-78
2023/08/16 13:17:51;;;;;;;;;;;31.70;99.90;;;;;;6710540;88;20109;-78
2023/08/16 13:27:52;;;;;;;;;;;31.00;99.90;;;;;;6713459;88;20064;-78
2023/08/16 13:37:53;;;;;;;;;;;31.40;99.90;;;;;;6711572;88;20060;-76
2023/08/16 13:47:55;;;;;;;;;;;30.20;99.90;;;;;;6709579;88;20562;-79
2023/08/16 13:57:55;;;;;;;;;;;28.90;99.90;;;;;;6709741;88;20119;-77
2023/08/16 14:07:56;;;;;;;;;;;28.60;99.90;;;;;;6713819;88;20134;-78
2023/08/16 14:17:56;;;;;;;;;;;29.00;99.90;;;;;;6717769;88;20681;-79
2023/08/16 14:27:56;;;;;;;;;;;30.40;99.90;;;;;;6708730;88;20063;-78
2023/08/16 14:37:57;;;;;;;;;;;29.70;99.90;;;;;;6710940;88;20078;-78
2023/08/16 14:47:57;;;;;;;;;;;29.40;99.90;;;;;;6710136;88;20083;-79
2023/08/16 14:58:02;;;;;;;;;;;29.30;99.90;;;;;;6715942;88;21533;-78
2023/08/16 15:08:03;;;;;;;;;;;29.40;99.90;;;;;;6712913;88;20210;-78
2023/08/16 15:18:04;;;;;;;;;;;29.20;99.90;;;;;;6715479;88;20067;-78
2023/08/16 15:28:04;;;;;;;;;;;29.00;99.90;;;;;;6713354;88;20523;-79
2023/08/16 15:38:06;;;;;;;;;;;28.90;99.90;;;;;;6715789;88;20067;-78
2023/08/16 15:48:06;;;;;;;;;;;29.00;99.90;;;;;;6720816;88;20059;-80
2023/08/16 15:58:07;;;;;;;;;;;28.30;99.90;;;;;;6714696;88;20055;-80
2023/08/16 16:08:07;;;;;;;;;;;28.00;99.90;;;;;;6709019;88;20085;-79
2023/08/16 16:18:07;;;;;;;;;;;27.80;99.90;;;;;;6709346;88;20130;-79
2023/08/16 16:28:08;;;;;;;;;;;27.30;99.90;;;;;;6706775;88;20055;-79
2023/08/16 16:38:09;;;;;;;;;;;26.90;99.90;;;;;;6708588;88;20063;-79
2023/08/16 16:48:09;;;;;;;;;;;26.80;99.90;;;;;;6705853;88;20063;-79
2023/08/16 16:58:10;;;;;;;;;;;26.80;99.90;;;;;;6706434;88;20063;-81
2023/08/16 17:08:11;;;;;;;;;;;26.50;99.90;;;;;;6719743;77;20088;-77
2023/08/16 17:18:11;;;;;;;;;;;26.10;99.90;;;;;;6709896;88;20677;-77
2023/08/16 17:28:12;;;;;;;;;;;25.90;99.90;;;;;;6693308;88;20108;-78
2023/08/16 17:38:12;;;;;;;;;;;25.50;99.90;;;;;;6695988;88;20498;-77
2023/08/16 17:48:13;;;;;;;;;;;25.30;99.90;;;;;;6695865;88;20068;-77
2023/08/16 17:58:14;;;;;;;;;;;25.00;99.90;;;;;;6695744;88;20194;-78
2023/08/16 18:08:14;;;;;;;;;;;24.80;99.90;;;;;;6696308;88;20072;-76
2023/08/16 18:18:15;;;;;;;;;;;24.50;99.90;;;;;;6696177;88;20084;-76
2023/08/16 18:28:15;;;;;;;;;;;24.40;99.90;;;;;;6695119;88;20105;-77
2023/08/16 18:38:16;;;;;;;;;;;24.40;99.90;;;;;;6697467;88;20101;-77
2023/08/16 18:48:18;;;;;;;;;;;24.20;99.90;;;;;;6699875;88;20064;-77
2023/08/16 18:58:18;;;;;;;;;;;23.90;99.90;;;;;;6705611;88;20191;-77
2023/08/16 19:08:20;;;;;;;;;;;23.50;99.90;;;;;;6698656;88;20059;-76
2023/08/16 19:18:21;;;;;;;;;;;22.90;99.90;;;;;;6696783;88;20127;-75
2023/08/16 19:28:21;;;;;;;;;;;22.40;99.90;;;;;;6697477;88;20142;-75
2023/08/16 19:38:22;;;;;;;;;;;22.10;99.90;;;;;;6700443;88;20136;-75
2023/08/16 19:48:22;;;;;;;;;;;21.70;99.90;;;;;;6696734;88;20103;-75
2023/08/16 19:58:23;;;;;;;;;;;21.50;99.90;;;;;;6696529;88;20492;-75
2023/08/16 20:08:23;;;;;;;;;;;21.40;99.90;;;;;;6695131;88;20241;-75
2023/08/16 20:18:24;;;;;;;;;;;21.30;99.90;;;;;;6695393;88;20609;-75
2023/08/16 20:28:24;;;;;;;;;;;21.30;99.90;;;;;;6695841;88;20073;-75
2023/08/16 20:38:25;;;;;;;;;;;21.20;99.90;;;;;;6691828;88;20120;-75
2023/08/16 20:48:25;;;;;;;;;;;21.10;99.90;;;;;;6694450;88;20060;-76
2023/08/16 20:58:26;;;;;;;;;;;21.20;99.90;;;;;;6695763;88;20077;-76
2023/08/16 21:08:47;;;;;;;;;;;21.10;99.90;;;;;;6706121;88;20395;-76
2023/08/16 21:18:50;;;;;;;;;;;21.00;99.90;;;;;;6698190;88;20097;-76
2023/08/16 21:28:51;;;;;;;;;;;21.00;99.90;;;;;;6696167;88;20447;-76
2023/08/16 21:38:53;;;;;;;;;;;20.90;99.90;;;;;;6702714;88;20092;-76
2023/08/16 21:48:56;;;;;;;;;;;20.80;99.90;;;;;;6699644;88;20085;-76
2023/08/16 21:58:57;;;;;;;;;;;20.70;99.90;;;;;;6695473;88;20062;-76
2023/08/16 22:09:09;;;;;;;;;;;20.60;99.90;;;;;;6695303;88;20067;-76
2023/08/16 22:19:11;;;;;;;;;;;20.50;99.90;;;;;;6702910;88;20055;-76
2023/08/16 22:29:15;;;;;;;;;;;20.40;99.90;;;;;;6698348;88;20209;-76
2023/08/16 22:39:21;;;;;;;;;;;20.10;99.90;;;;;;6698411;88;20207;-76
2023/08/16 22:49:23;;;;;;;;;;;19.80;99.90;;;;;;6698123;88;20141;-76
2023/08/16 22:59:26;;;;;;;;;;;19.60;99.90;;;;;;6697473;88;20059;-76
2023/08/16 23:19:30;;;;;;;;;;;19.90;99.90;;;;;;6658676;89;20081;-78
2023/08/16 23:29:31;;;;;;;;;;;20.00;99.90;;;;;;6654192;89;20631;-78
2023/08/16 23:39:31;;;;;;;;;;;20.00;99.90;;;;;;6664345;89;20172;-77
2023/08/16 23:49:33;;;;;;;;;;;20.10;99.90;;;;;;6653019;89;20636;-78
2023/08/16 23:59:34;;;;;;;;;;;20.00;99.90;;;;;;6642155;89;20141;-76
